Time;durP1;ratioP1;P1;durP2;ratioP2;P2;SDS_P1;SDS_P2;PMS_P1;PMS_P2;Temp;Humidity;BMP_temperature;BMP_pressure;BME280_temperature;BME280_humidity;BME280_pressure;Samples;Min_cycle;Max_cycle;Signal;HPM_P1;HPM_P2
2021/03/01 00:00:25;;;;;;;24.33;12.33;;;-1.30;99.90;;;;;;5076407;28;20181;-80
2021/03/01 00:02:51;;;;;;;25.13;12.43;;;-1.30;99.90;;;;;;5076254;28;20200;-81
2021/03/01 00:05:17;;;;;;;20.20;11.43;;;-1.40;99.90;;;;;;5078208;28;20642;-81
2021/03/01 00:07:43;;;;;;;22.77;11.77;;;-1.40;99.90;;;;;;5075814;28;20638;-81
2021/03/01 00:10:10;;;;;;;27.00;12.37;;;-1.50;99.90;;;;;;5076149;28;20653;-80
2021/03/01 00:12:37;;;;;;;24.73;11.50;;;-1.50;99.90;;;;;;5077472;28;20422;-80
2021/03/01 00:15:05;;;;;;;22.43;11.83;;;-1.50;99.90;;;;;;5077945;28;20489;-80
2021/03/01 00:17:31;;;;;;;25.07;11.77;;;-1.50;99.90;;;;;;5076538;28;20411;-81
2021/03/01 00:19:57;;;;;;;18.67;10.50;;;-1.50;99.90;;;;;;5077147;28;20411;-81
2021/03/01 00:22:22;;;;;;;23.73;11.70;;;-1.40;99.90;;;;;;5078061;28;20184;-80
2021/03/01 00:24:48;;;;;;;22.50;11.57;;;-1.50;99.90;;;;;;5094149;28;20329;-81
2021/03/01 00:27:13;;;;;;;21.67;11.60;;;-1.50;99.90;;;;;;5077212;28;20220;-81
2021/03/01 00:29:39;;;;;;;19.80;11.03;;;-1.50;99.90;;;;;;5076681;28;20189;-81
2021/03/01 00:32:05;;;;;;;25.00;12.07;;;-1.50;99.90;;;;;;5077699;28;20178;-81
2021/03/01 00:34:31;;;;;;;20.30;11.40;;;-1.50;99.90;;;;;;5077869;28;20224;-81
2021/03/01 00:36:56;;;;;;;22.53;12.13;;;-1.50;99.90;;;;;;5077003;28;20268;-80
2021/03/01 00:39:23;;;;;;;21.67;11.50;;;-1.50;99.90;;;;;;5077084;28;20203;-80
2021/03/01 00:41:48;;;;;;;18.87;11.00;;;-1.60;99.90;;;;;;5093481;28;20609;-80
2021/03/01 00:44:14;;;;;;;20.90;11.00;;;-1.60;99.90;;;;;;5077299;28;20474;-80
2021/03/01 00:46:40;;;;;;;21.23;10.23;;;-1.60;99.90;;;;;;5076044;28;20248;-81
2021/03/01 00:49:05;;;;;;;20.00;10.07;;;-1.60;99.90;;;;;;5077541;28;20549;-80
2021/03/01 00:51:32;;;;;;;15.43;9.30;;;-1.70;99.90;;;;;;5077835;28;20181;-80
2021/03/01 00:53:57;;;;;;;15.77;9.10;;;-1.70;99.90;;;;;;5078101;28;20229;-80
2021/03/01 00:56:23;;;;;;;14.83;8.57;;;-1.70;99.90;;;;;;5076805;28;20415;-80
2021/03/01 00:58:49;;;;;;;18.27;9.50;;;-1.70;99.90;;;;;;5077902;28;20183;-80
2021/03/01 01:01:15;;;;;;;18.50;8.77;;;-1.60;99.90;;;;;;5076747;28;20187;-81
2021/03/01 01:03:40;;;;;;;14.03;7.20;;;-1.70;99.90;;;;;;5077955;28;20267;-80
2021/03/01 01:06:06;;;;;;;13.43;7.13;;;-1.70;99.90;;;;;;5077681;28;20164;-80
2021/03/01 01:08:32;;;;;;;14.40;8.17;;;-1.70;99.90;;;;;;5077183;28;20186;-80
2021/03/01 01:10:57;;;;;;;14.77;7.93;;;-1.70;99.90;;;;;;5078026;28;20177;-80
2021/03/01 01:13:23;;;;;;;10.50;6.17;;;-1.60;99.90;;;;;;5093636;28;20192;-80
2021/03/01 01:15:49;;;;;;;10.87;6.37;;;-1.70;99.90;;;;;;5077856;28;20208;-79
2021/03/01 01:18:14;;;;;;;12.53;6.47;;;-1.70;99.90;;;;;;5077452;28;20174;-80
2021/03/01 01:20:40;;;;;;;13.37;7.00;;;-1.80;99.90;;;;;;5077257;28;20173;-80
2021/03/01 01:23:06;;;;;;;15.77;7.07;;;-1.80;99.90;;;;;;5076558;28;20677;-80
2021/03/01 01:25:31;;;;;;;14.13;7.53;;;-1.80;99.90;;;;;;5076599;28;20639;-80
2021/03/01 01:27:57;;;;;;;13.93;7.40;;;-1.90;99.90;;;;;;5078107;28;20173;-80
2021/03/01 01:30:26;;;;;;;11.00;6.43;;;-1.80;99.90;;;;;;5076762;28;20181;-79
2021/03/01 01:32:52;;;;;;;12.70;6.80;;;-1.90;99.90;;;;;;5077530;28;20208;-79
2021/03/01 01:35:19;;;;;;;13.33;7.27;;;-1.80;99.90;;;;;;5075582;28;20455;-80
2021/03/01 01:37:46;;;;;;;12.13;7.27;;;-1.80;99.90;;;;;;5075217;28;20439;-80
2021/03/01 01:40:16;;;;;;;12.33;7.47;;;-1.80;99.90;;;;;;5076880;28;21016;-80
2021/03/01 01:42:42;;;;;;;14.70;7.63;;;-1.80;99.90;;;;;;5075616;28;20801;-79
2021/03/01 01:45:14;;;;;;;13.73;7.23;;;-1.80;99.90;;;;;;5075059;28;20430;-79
2021/03/01 01:47:42;;;;;;;13.57;7.37;;;-1.80;99.90;;;;;;5077328;28;20411;-80
2021/03/01 01:50:10;;;;;;;12.57;7.93;;;-1.70;99.90;;;;;;5075887;28;20417;-79
2021/03/01 01:52:36;;;;;;;13.70;7.13;;;-1.80;99.90;;;;;;5077449;28;20439;-80
2021/03/01 01:55:04;;;;;;;15.90;8.80;;;-1.60;99.90;;;;;;5077007;28;20574;-79
2021/03/01 01:57:30;;;;;;;15.97;7.47;;;-1.80;99.90;;;;;;5075448;28;20411;-80
2021/03/01 01:59:56;;;;;;;18.63;8.07;;;-1.70;99.90;;;;;;5075545;28;20418;-79
2021/03/01 02:02:22;;;;;;;15.53;8.20;;;-1.80;99.90;;;;;;5076018;28;20823;-80
2021/03/01 02:04:58;;;;;;;14.30;7.53;;;-1.80;99.90;;;;;;5076741;28;20193;-79
2021/03/01 02:07:48;;;;;;;15.83;8.17;;;-1.80;99.90;;;;;;5075633;28;20655;-81
2021/03/01 02:10:34;;;;;;;13.93;7.37;;;-2.00;99.90;;;;;;5075138;28;20423;-80
2021/03/01 02:13:23;;;;;;;16.27;8.03;;;-2.10;99.90;;;;;;5079899;28;20460;-80
2021/03/01 02:16:06;;;;;;;13.10;6.90;;;-2.10;99.90;;;;;;5079660;28;20463;-79
2021/03/01 02:18:32;;;;;;;13.70;8.17;;;-2.20;99.90;;;;;;5079319;28;20760;-80
2021/03/01 02:21:11;;;;;;;16.27;7.83;;;-2.20;99.90;;;;;;5078522;28;20419;-79
2021/03/01 02:23:38;;;;;;;12.37;7.67;;;-2.20;99.90;;;;;;5095590;28;20197;-80
2021/03/01 02:26:10;;;;;;;13.23;8.13;;;-2.20;99.90;;;;;;5078942;28;20468;-79
2021/03/01 02:28:42;;;;;;;14.13;8.23;;;-2.30;99.90;;;;;;5080631;28;20761;-80
2021/03/01 02:31:09;;;;;;;15.30;8.47;;;-2.30;99.90;;;;;;5078903;28;20420;-79
2021/03/01 02:33:40;;;;;;;17.33;8.03;;;-2.50;99.90;;;;;;5096169;28;20448;-79
2021/03/01 02:36:12;;;;;;;17.27;8.90;;;-2.50;99.90;;;;;;5079803;28;20407;-79
2021/03/01 02:38:40;;;;;;;13.60;8.07;;;-2.50;99.90;;;;;;5078818;28;20415;-80
2021/03/01 02:41:07;;;;;;;14.33;8.53;;;-2.50;99.90;;;;;;5079041;28;20460;-79
2021/03/01 02:43:35;;;;;;;15.37;8.60;;;-2.40;99.90;;;;;;5095833;28;20435;-79
2021/03/01 02:46:03;;;;;;;14.90;8.97;;;-2.40;99.90;;;;;;5078722;28;20413;-79
2021/03/01 02:48:31;;;;;;;19.47;9.10;;;-2.50;99.90;;;;;;5079922;28;20411;-80
2021/03/01 02:50:57;;;;;;;16.03;8.60;;;-2.50;99.90;;;;;;5080137;28;20410;-79
2021/03/01 02:53:26;;;;;;;18.83;9.43;;;-2.40;99.90;;;;;;5078896;28;20444;-80
2021/03/01 02:55:53;;;;;;;16.47;8.80;;;-2.40;99.90;;;;;;5078930;28;20454;-79
2021/03/01 02:58:22;;;;;;;15.73;9.00;;;-2.40;99.90;;;;;;5080679;28;20441;-79
2021/03/01 03:00:48;;;;;;;16.97;8.80;;;-2.30;99.90;;;;;;5080380;28;20817;-79
2021/03/01 03:03:13;;;;;;;13.53;8.27;;;-2.40;99.90;;;;;;5079904;28;20435;-80
2021/03/01 03:05:41;;;;;;;15.43;8.30;;;-2.50;99.90;;;;;;5080040;28;20166;-79
2021/03/01 03:08:08;;;;;;;15.00;8.07;;;-2.50;99.90;;;;;;5079006;28;20710;-80
2021/03/01 03:10:35;;;;;;;13.37;7.93;;;-2.50;99.90;;;;;;5079786;28;20414;-79
2021/03/01 03:13:03;;;;;;;14.30;7.57;;;-2.50;99.90;;;;;;5079183;28;20483;-79
2021/03/01 03:15:30;;;;;;;18.23;7.93;;;-2.50;99.90;;;;;;5078376;28;20464;-79
2021/03/01 03:17:58;;;;;;;14.13;7.67;;;-2.50;99.90;;;;;;5078421;28;20982;-80
2021/03/01 03:20:25;;;;;;;14.07;8.37;;;-2.50;99.90;;;;;;5079580;28;20889;-80
2021/03/01 03:22:51;;;;;;;12.33;7.60;;;-2.60;99.90;;;;;;5079107;28;20897;-80
2021/03/01 03:25:17;;;;;;;13.13;7.57;;;-2.60;99.90;;;;;;5094805;28;20468;-79
2021/03/01 03:27:42;;;;;;;12.60;7.10;;;-2.60;99.90;;;;;;5079272;28;20630;-80
2021/03/01 03:30:11;;;;;;;17.17;8.80;;;-2.60;99.90;;;;;;5077474;28;20177;-80
2021/03/01 03:32:37;;;;;;;15.77;7.63;;;-2.60;99.90;;;;;;5079565;28;20196;-79
2021/03/01 03:35:06;;;;;;;11.33;7.73;;;-2.60;99.90;;;;;;5079366;28;20471;-79
2021/03/01 03:37:37;;;;;;;14.43;8.20;;;-2.50;99.90;;;;;;5094365;28;20479;-79
2021/03/01 03:40:05;;;;;;;16.80;8.00;;;-2.50;99.90;;;;;;5076954;28;20411;-79
2021/03/01 03:42:32;;;;;;;12.63;7.30;;;-2.50;99.90;;;;;;5077448;28;20438;-79
2021/03/01 03:44:59;;;;;;;14.90;7.73;;;-2.60;99.90;;;;;;5077364;28;20423;-79
2021/03/01 03:47:26;;;;;;;15.23;7.27;;;-2.70;99.90;;;;;;5077652;28;20415;-80
2021/03/01 03:49:54;;;;;;;12.80;7.17;;;-2.70;99.90;;;;;;5078693;28;20464;-80
2021/03/01 03:52:25;;;;;;;19.07;7.50;;;-2.70;99.90;;;;;;5078717;28;20469;-80
2021/03/01 03:54:52;;;;;;;12.17;7.27;;;-2.80;99.90;;;;;;5077559;28;20455;-79
2021/03/01 03:57:29;;;;;;;10.30;6.33;;;-2.80;99.90;;;;;;5078510;28;20418;-79
2021/03/01 03:59:57;;;;;;;10.10;6.47;;;-2.80;99.90;;;;;;5079498;28;20392;-79
2021/03/01 04:02:25;;;;;;;13.83;7.77;;;-2.80;99.90;;;;;;5078858;28;20431;-80
2021/03/01 04:04:53;;;;;;;15.00;8.23;;;-2.80;99.90;;;;;;5078597;28;20973;-80
2021/03/01 04:07:21;;;;;;;13.13;7.20;;;-2.80;99.90;;;;;;5078873;28;20950;-80
2021/03/01 04:09:48;;;;;;;12.27;7.40;;;-2.70;99.90;;;;;;5077055;28;20423;-80
2021/03/01 04:12:16;;;;;;;13.77;7.33;;;-2.80;99.90;;;;;;5076911;28;20414;-79
2021/03/01 04:14:45;;;;;;;14.47;7.33;;;-2.80;99.90;;;;;;5076695;28;20543;-80
2021/03/01 04:17:13;;;;;;;14.23;7.93;;;-2.90;99.90;;;;;;5077142;28;20990;-79
2021/03/01 04:19:41;;;;;;;16.63;8.70;;;-2.90;99.90;;;;;;5076140;28;20477;-80
2021/03/01 04:22:08;;;;;;;14.60;8.03;;;-2.80;99.90;;;;;;5076983;28;20980;-79
2021/03/01 04:24:36;;;;;;;16.30;8.73;;;-2.80;99.90;;;;;;5093754;28;20419;-80
2021/03/01 04:27:05;;;;;;;12.90;7.43;;;-2.70;99.90;;;;;;5078418;28;20419;-79
2021/03/01 04:29:31;;;;;;;15.23;8.43;;;-2.80;99.90;;;;;;5077050;28;20429;-80
2021/03/01 04:31:58;;;;;;;16.27;9.37;;;-2.80;99.90;;;;;;5078390;28;20775;-80
2021/03/01 04:34:25;;;;;;;16.17;8.43;;;-2.80;99.90;;;;;;5078319;28;20935;-80
2021/03/01 04:36:51;;;;;;;16.83;9.03;;;-2.70;99.90;;;;;;5077119;28;20419;-79
2021/03/01 04:39:18;;;;;;;15.37;8.53;;;-2.70;99.90;;;;;;5077331;28;20936;-79
2021/03/01 04:41:46;;;;;;;18.77;8.77;;;-2.70;99.90;;;;;;5078302;28;20186;-79
2021/03/01 04:44:14;;;;;;;13.97;8.40;;;-2.70;99.90;;;;;;5077230;28;20860;-79
2021/03/01 04:46:44;;;;;;;18.27;8.83;;;-2.70;99.90;;;;;;5094096;28;20415;-79
2021/03/01 04:49:10;;;;;;;17.50;9.77;;;-2.80;99.90;;;;;;5076690;28;20478;-80
2021/03/01 04:51:36;;;;;;;19.47;9.07;;;-2.80;99.90;;;;;;5093502;28;20427;-80
2021/03/01 04:54:03;;;;;;;19.20;10.13;;;-2.80;99.90;;;;;;5076858;28;20461;-80
2021/03/01 04:56:30;;;;;;;13.13;7.73;;;-2.90;99.90;;;;;;5076396;28;20413;-80
2021/03/01 04:58:56;;;;;;;16.73;9.40;;;-3.00;99.90;;;;;;5076674;28;20419;-80
2021/03/01 05:01:23;;;;;;;16.03;9.17;;;-3.00;99.90;;;;;;5078946;28;20476;-79
2021/03/01 05:03:51;;;;;;;18.20;10.13;;;-3.00;99.90;;;;;;5076732;28;20453;-79
2021/03/01 05:06:19;;;;;;;16.47;9.53;;;-3.00;99.90;;;;;;5076776;28;20416;-79
2021/03/01 05:08:47;;;;;;;19.23;10.50;;;-2.90;99.90;;;;;;5078121;28;20987;-80
2021/03/01 05:11:28;;;;;;;19.30;10.43;;;-3.00;99.90;;;;;;5076544;28;20427;-79
2021/03/01 05:13:54;;;;;;;21.27;11.93;;;-3.00;99.90;;;;;;5076099;28;20807;-80
2021/03/01 05:16:19;;;;;;;20.27;11.87;;;-3.00;99.90;;;;;;5077184;28;20416;-79
2021/03/01 05:18:46;;;;;;;20.13;10.57;;;-3.00;99.90;;;;;;5077280;28;20218;-80
2021/03/01 05:21:12;;;;;;;20.10;10.10;;;-3.00;99.90;;;;;;5076410;28;20263;-79
2021/03/01 05:23:37;;;;;;;21.50;10.47;;;-3.00;99.90;;;;;;5076807;28;20476;-80
2021/03/01 05:26:03;;;;;;;20.60;10.30;;;-2.90;99.90;;;;;;5077389;28;20165;-79
2021/03/01 05:28:29;;;;;;;24.23;12.77;;;-2.90;99.90;;;;;;5075608;28;20582;-79
2021/03/01 05:30:55;;;;;;;23.60;13.13;;;-3.00;99.90;;;;;;5076702;28;20403;-79
2021/03/01 05:33:20;;;;;;;22.23;11.17;;;-2.90;99.90;;;;;;5077629;28;20276;-80
2021/03/01 05:35:46;;;;;;;21.07;11.47;;;-3.00;99.90;;;;;;5092599;28;20632;-79
2021/03/01 05:38:12;;;;;;;18.10;10.70;;;-2.90;99.90;;;;;;5075781;28;20172;-80
2021/03/01 05:40:37;;;;;;;17.60;10.40;;;-3.00;99.90;;;;;;5077211;28;20173;-79
2021/03/01 05:43:03;;;;;;;22.83;11.10;;;-3.00;99.90;;;;;;5075746;28;20674;-79
2021/03/01 05:45:29;;;;;;;21.47;10.93;;;-3.00;99.90;;;;;;5075495;28;20265;-79
2021/03/01 05:47:55;;;;;;;20.07;11.07;;;-2.90;99.90;;;;;;5078377;28;20846;-80
2021/03/01 05:50:21;;;;;;;22.07;10.60;;;-2.90;99.90;;;;;;5079870;28;20644;-79
2021/03/01 05:52:50;;;;;;;19.87;10.13;;;-2.90;99.90;;;;;;5079286;28;20825;-80
2021/03/01 05:55:20;;;;;;;18.87;10.27;;;-2.90;99.90;;;;;;5080051;28;20808;-79
2021/03/01 05:57:46;;;;;;;18.20;9.80;;;-2.90;99.90;;;;;;5079097;28;20415;-80
2021/03/01 06:00:13;;;;;;;16.70;9.63;;;-3.00;99.90;;;;;;5078672;28;20512;-79
2021/03/01 06:02:39;;;;;;;21.83;10.27;;;-3.00;99.90;;;;;;5079472;28;20425;-79
2021/03/01 06:05:05;;;;;;;19.70;8.83;;;-3.00;99.90;;;;;;5078455;28;20486;-79
2021/03/01 06:07:31;;;;;;;17.30;9.00;;;-3.00;99.90;;;;;;5078810;28;20176;-79
2021/03/01 06:09:56;;;;;;;20.50;9.33;;;-3.00;99.90;;;;;;5076955;28;20834;-79
2021/03/01 06:12:22;;;;;;;18.17;9.00;;;-3.00;99.90;;;;;;5079738;28;20254;-79
2021/03/01 06:14:48;;;;;;;20.17;9.63;;;-3.10;99.90;;;;;;5080066;28;20514;-79
2021/03/01 06:17:20;;;;;;;16.70;9.03;;;-3.00;99.90;;;;;;5080868;28;20182;-79
2021/03/01 06:19:56;;;;;;;14.33;8.37;;;-3.00;99.90;;;;;;5079340;28;20611;-80
2021/03/01 06:22:31;;;;;;;14.60;8.10;;;-3.10;99.90;;;;;;5081325;28;20434;-79
2021/03/01 06:25:17;;;;;;;15.93;8.83;;;-3.10;99.90;;;;;;5079049;28;20410;-79
2021/03/01 06:27:49;;;;;;;17.07;9.63;;;-3.10;99.90;;;;;;5079286;28;20959;-79
2021/03/01 06:30:16;;;;;;;19.83;10.10;;;-3.10;99.90;;;;;;5082166;28;20423;-80
2021/03/01 06:32:42;;;;;;;20.53;10.67;;;-3.10;99.90;;;;;;5082698;28;20500;-80
2021/03/01 06:35:28;;;;;;;15.83;10.00;;;-3.10;99.90;;;;;;5082304;28;20971;-80
2021/03/01 06:38:13;;;;;;;19.40;10.63;;;-3.10;99.90;;;;;;5080826;28;20411;-80
2021/03/01 06:40:39;;;;;;;21.50;9.07;;;-3.10;99.90;;;;;;5081817;28;20403;-79
2021/03/01 06:43:15;;;;;;;21.17;9.77;;;-3.00;99.90;;;;;;5081183;28;20431;-79
2021/03/01 06:45:41;;;;;;;16.70;8.73;;;-2.90;99.90;;;;;;5082279;28;20417;-79
2021/03/01 06:48:08;;;;;;;15.60;8.70;;;-2.90;99.90;;;;;;5082956;28;20865;-80
2021/03/01 06:50:36;;;;;;;16.03;8.77;;;-2.90;99.90;;;;;;5081707;28;20413;-80
2021/03/01 06:53:12;;;;;;;21.57;8.87;;;-2.90;99.90;;;;;;5082294;28;20435;-80
2021/03/01 06:56:11;;;;;;;15.93;8.83;;;-2.90;99.90;;;;;;5081984;28;20449;-80
2021/03/01 06:58:39;;;;;;;17.30;9.57;;;-2.80;99.90;;;;;;5080008;28;20418;-79
2021/03/01 07:01:13;;;;;;;19.07;9.10;;;-2.80;99.90;;;;;;5080295;28;20423;-79
2021/03/01 07:03:40;;;;;;;16.53;9.57;;;-2.60;99.90;;;;;;5081145;28;20438;-80
2021/03/01 07:06:07;;;;;;;17.23;9.60;;;-2.50;99.90;;;;;;5081997;28;20387;-79
2021/03/01 07:08:39;;;;;;;23.53;9.67;;;-2.40;99.90;;;;;;5081389;28;20410;-80
2021/03/01 07:11:21;;;;;;;12.77;7.90;;;-2.30;99.90;;;;;;5080548;28;20430;-79
2021/03/01 07:13:47;;;;;;;18.37;9.10;;;-2.30;99.90;;;;;;5079507;28;20944;-79
2021/03/01 07:16:14;;;;;;;15.07;8.80;;;-2.30;99.90;;;;;;5081921;28;20411;-80
2021/03/01 07:18:41;;;;;;;15.87;10.03;;;-2.30;99.90;;;;;;5080356;28;20415;-81
2021/03/01 07:21:11;;;;;;;19.13;9.47;;;-2.20;99.90;;;;;;5080335;28;20482;-79
2021/03/01 07:23:41;;;;;;;15.83;10.17;;;-2.10;99.90;;;;;;5079605;28;20435;-80
2021/03/01 07:26:09;;;;;;;16.63;9.77;;;-1.90;99.90;;;;;;5080229;28;20502;-80
2021/03/01 07:28:38;;;;;;;19.00;10.23;;;-1.80;99.90;;;;;;5081774;28;20474;-79
2021/03/01 07:31:06;;;;;;;18.90;10.57;;;-1.60;99.90;;;;;;5078346;28;20465;-80
2021/03/01 07:33:32;;;;;;;18.00;9.97;;;-1.50;99.90;;;;;;5077902;28;20432;-80
2021/03/01 07:35:59;;;;;;;14.10;9.10;;;-1.40;99.90;;;;;;5077982;28;20450;-80
2021/03/01 07:38:25;;;;;;;15.53;10.00;;;-1.30;99.90;;;;;;5094409;28;20181;-79
2021/03/01 07:40:51;;;;;;;17.60;10.07;;;-1.20;99.90;;;;;;5079239;28;20406;-80
2021/03/01 07:43:19;;;;;;;17.60;10.87;;;-1.00;99.90;;;;;;5076590;28;20428;-80
2021/03/01 07:45:45;;;;;;;18.50;11.43;;;-0.80;99.90;;;;;;5076500;28;20211;-80
2021/03/01 07:48:13;;;;;;;18.10;10.60;;;-0.50;99.90;;;;;;5077076;28;20418;-80
2021/03/01 07:50:42;;;;;;;22.93;11.20;;;-0.30;99.90;;;;;;5077312;28;20411;-81
2021/03/01 07:53:46;;;;;;;20.50;10.50;;;0.20;99.90;;;;;;5077927;28;20454;-81
2021/03/01 07:56:37;;;;;;;19.13;11.03;;;0.90;99.90;;;;;;5077974;28;20411;-80
2021/03/01 07:59:08;;;;;;;19.43;10.20;;;2.00;99.90;;;;;;5087484;28;20565;-81
2021/03/01 08:01:35;;;;;;;18.60;10.80;;;3.20;99.90;;;;;;5077895;28;20408;-81
2021/03/01 08:04:02;;;;;;;13.83;10.03;;;4.20;99.90;;;;;;5076331;28;20825;-81
2021/03/01 08:06:54;;;;;;;15.43;10.20;;;5.10;99.90;;;;;;5076983;28;20935;-81
2021/03/01 08:09:39;;;;;;;16.10;10.93;;;5.80;99.90;;;;;;5076054;28;20984;-81
2021/03/01 08:12:05;;;;;;;13.70;9.23;;;6.10;99.90;;;;;;5078127;28;20407;-81
2021/03/01 08:14:53;;;;;;;13.87;10.07;;;6.30;99.90;;;;;;5078055;28;20952;-81
2021/03/01 11:08:13;;;;;;;9.80;6.40;;;12.20;93.40;;;;;;5137703;27;20462;-78
2021/03/01 11:10:39;;;;;;;7.70;5.80;;;12.70;93.90;;;;;;5137888;28;20235;-78
2021/03/01 11:13:05;;;;;;;6.23;5.60;;;12.90;93.20;;;;;;5137751;28;20209;-78
2021/03/01 11:15:30;;;;;;;8.27;5.80;;;13.00;93.30;;;;;;5138479;27;20628;-79
2021/03/01 11:17:56;;;;;;;6.53;5.40;;;13.30;95.10;;;;;;5138524;27;20179;-79
2021/03/01 11:20:21;;;;;;;7.33;5.57;;;13.30;90.20;;;;;;5139236;27;20251;-78
2021/03/01 11:22:47;;;;;;;6.40;5.70;;;13.30;91.90;;;;;;5111708;27;20232;-79
2021/03/01 11:25:13;;;;;;;5.93;5.17;;;13.30;88.60;;;;;;5097510;28;20168;-79
2021/03/01 11:27:38;;;;;;;6.77;4.90;;;13.30;90.40;;;;;;5096828;28;20200;-78
2021/03/01 11:30:05;;;;;;;6.53;5.10;;;13.50;90.50;;;;;;5098030;28;20235;-78
2021/03/01 11:32:30;;;;;;;5.17;4.67;;;13.90;89.40;;;;;;5097811;28;20254;-78
2021/03/01 11:34:56;;;;;;;5.13;4.43;;;14.10;82.50;;;;;;5091803;28;20184;-79
2021/03/01 11:37:22;;;;;;;4.70;4.20;;;14.10;80.20;;;;;;5095963;28;20642;-78
2021/03/01 11:39:47;;;;;;;5.70;5.20;;;14.20;81.60;;;;;;5095157;28;20173;-78
2021/03/01 11:42:13;;;;;;;6.47;4.93;;;14.30;81.70;;;;;;5094379;28;20191;-77
2021/03/01 11:44:38;;;;;;;5.17;4.60;;;14.70;80.50;;;;;;5094911;28;20165;-78
2021/03/01 11:47:04;;;;;;;5.47;4.57;;;15.20;80.10;;;;;;5094286;28;20293;-78
2021/03/01 11:49:30;;;;;;;5.23;4.70;;;15.30;75.20;;;;;;5094187;28;20187;-78
2021/03/01 11:51:56;;;;;;;7.20;5.00;;;15.40;76.50;;;;;;5096187;28;20618;-78
2021/03/01 11:54:22;;;;;;;5.03;4.53;;;15.60;73.40;;;;;;5094031;28;20194;-78
2021/03/01 11:56:48;;;;;;;5.33;4.80;;;15.90;72.00;;;;;;5094013;28;20200;-78
2021/03/01 11:59:13;;;;;;;5.20;4.47;;;16.10;69.80;;;;;;5094081;28;20177;-78
2021/03/01 12:01:40;;;;;;;4.60;3.97;;;16.20;67.10;;;;;;5094194;28;20182;-79
2021/03/01 12:04:06;;;;;;;5.13;4.43;;;16.20;64.10;;;;;;5110382;28;20277;-78
2021/03/01 12:06:31;;;;;;;4.87;4.27;;;16.20;64.70;;;;;;5092364;28;20284;-78
2021/03/01 12:08:57;;;;;;;4.40;4.00;;;16.10;65.60;;;;;;5094655;28;20191;-78
2021/03/01 12:11:23;;;;;;;5.70;4.87;;;16.40;66.10;;;;;;5093555;28;20172;-79
2021/03/01 12:13:48;;;;;;;5.87;4.80;;;16.20;67.40;;;;;;5095969;28;20262;-78
2021/03/01 12:16:14;;;;;;;5.67;4.67;;;16.60;64.90;;;;;;5095131;28;20183;-78
2021/03/01 12:18:40;;;;;;;5.23;4.43;;;16.70;62.90;;;;;;5086107;28;20169;-78
2021/03/01 12:21:05;;;;;;;5.27;4.33;;;17.00;63.20;;;;;;5079838;28;20187;-78
2021/03/01 12:23:31;;;;;;;8.37;4.97;;;17.10;59.40;;;;;;5078223;28;20561;-78
2021/03/01 12:25:57;;;;;;;5.07;4.37;;;17.30;61.60;;;;;;5078978;28;20268;-78
2021/03/01 12:28:22;;;;;;;5.43;4.47;;;17.60;61.40;;;;;;5078978;28;20261;-77
2021/03/01 12:30:48;;;;;;;5.13;4.63;;;16.50;59.10;;;;;;5078028;28;20268;-78
2021/03/01 12:33:14;;;;;;;6.50;4.63;;;16.70;62.00;;;;;;5078640;28;20192;-77
2021/03/01 12:35:40;;;;;;;6.43;5.50;;;16.90;58.50;;;;;;5077539;28;20194;-79
2021/03/01 12:38:06;;;;;;;5.27;4.77;;;17.20;58.70;;;;;;5078174;28;20525;-78
2021/03/01 12:40:32;;;;;;;4.70;4.20;;;17.40;59.50;;;;;;5078578;28;20205;-78
2021/03/01 12:42:57;;;;;;;6.80;5.00;;;17.20;58.20;;;;;;5078763;28;20618;-78
2021/03/01 12:45:23;;;;;;;6.03;4.77;;;17.30;58.80;;;;;;5078165;28;20179;-78
2021/03/01 12:47:49;;;;;;;4.67;4.23;;;17.60;58.00;;;;;;5078498;28;20199;-78
2021/03/01 12:50:15;;;;;;;5.00;4.33;;;17.90;56.50;;;;;;5076760;28;20232;-78
2021/03/01 12:52:41;;;;;;;5.07;4.57;;;18.10;56.40;;;;;;5078013;28;20269;-78
2021/03/01 12:55:06;;;;;;;6.53;4.63;;;18.30;55.60;;;;;;5077355;28;20179;-78
2021/03/01 12:57:32;;;;;;;5.20;4.70;;;18.40;55.90;;;;;;5077469;28;20182;-78
2021/03/01 12:59:58;;;;;;;5.37;4.70;;;18.70;54.20;;;;;;5078125;28;20178;-78
2021/03/01 13:02:23;;;;;;;8.17;5.67;;;18.90;53.60;;;;;;5078109;28;20579;-78
2021/03/01 13:04:49;;;;;;;35.23;6.27;;;18.90;53.00;;;;;;5078452;28;20706;-78
2021/03/01 13:07:15;;;;;;;164.30;14.67;;;18.80;52.60;;;;;;5077881;28;20665;-78
2021/03/01 13:09:41;;;;;;;43.87;6.63;;;18.90;52.70;;;;;;5077039;28;20225;-78
2021/03/01 13:12:06;;;;;;;73.97;8.50;;;19.70;52.50;;;;;;5077394;28;20277;-78
2021/03/01 13:14:32;;;;;;;20.10;4.50;;;19.60;50.50;;;;;;5078130;28;20632;-78
2021/03/01 13:16:58;;;;;;;6.80;4.10;;;18.90;50.40;;;;;;5077857;28;20173;-78
2021/03/01 13:19:23;;;;;;;16.10;4.93;;;19.20;51.00;;;;;;5078206;28;20172;-78
2021/03/01 13:21:49;;;;;;;80.20;9.27;;;19.60;50.30;;;;;;5078938;28;20231;-78
2021/03/01 13:24:16;;;;;;;7.33;4.33;;;19.60;49.80;;;;;;5077500;28;20675;-79
2021/03/01 13:26:43;;;;;;;11.17;4.00;;;20.10;50.20;;;;;;5077294;28;20598;-78
2021/03/01 13:29:08;;;;;;;93.97;9.27;;;20.30;49.20;;;;;;5077384;28;20195;-78
2021/03/01 13:31:34;;;;;;;6.27;3.97;;;20.40;49.60;;;;;;5077478;28;20246;-78
2021/03/01 13:33:59;;;;;;;47.30;6.80;;;20.40;47.70;;;;;;5077202;28;20196;-77
2021/03/01 13:36:25;;;;;;;75.80;9.50;;;20.60;48.10;;;;;;5078224;28;20256;-78
2021/03/01 13:38:51;;;;;;;16.60;4.00;;;20.80;47.30;;;;;;5076326;28;20181;-78
2021/03/01 13:41:16;;;;;;;49.87;6.10;;;20.70;47.30;;;;;;5078385;28;20185;-77
2021/03/01 13:43:42;;;;;;;32.60;5.40;;;21.10;46.20;;;;;;5079784;28;20227;-79
2021/03/01 13:46:08;;;;;;;50.03;7.80;;;21.50;46.20;;;;;;5084231;28;20193;-78
2021/03/01 13:48:33;;;;;;;5.73;3.63;;;20.90;45.70;;;;;;5083332;28;20184;-79
2021/03/01 13:50:59;;;;;;;21.63;4.43;;;19.90;46.20;;;;;;5082670;28;20630;-78
2021/03/01 13:53:24;;;;;;;47.60;6.53;;;19.80;46.90;;;;;;5082728;28;20204;-78
2021/03/01 13:55:50;;;;;;;25.57;5.07;;;20.50;46.10;;;;;;5082732;28;20177;-78
2021/03/01 13:58:16;;;;;;;36.90;5.43;;;20.90;44.70;;;;;;5078819;28;20275;-78
2021/03/01 14:00:41;;;;;;;5.43;3.93;;;20.50;44.30;;;;;;5082572;28;20176;-78
2021/03/01 14:03:08;;;;;;;15.77;4.50;;;20.40;44.60;;;;;;5077249;28;20197;-78
2021/03/01 14:05:33;;;;;;;7.37;4.00;;;20.30;44.50;;;;;;5079090;28;20173;-78
2021/03/01 14:07:59;;;;;;;49.67;5.80;;;20.30;44.70;;;;;;5078492;28;20243;-78
2021/03/01 14:10:25;;;;;;;4.83;3.80;;;20.70;44.40;;;;;;5076814;28;20173;-78
2021/03/01 14:12:51;;;;;;;44.23;5.57;;;19.90;44.00;;;;;;5076993;28;20195;-78
2021/03/01 14:15:17;;;;;;;8.47;3.50;;;17.60;46.60;;;;;;5078147;28;20169;-78
2021/03/01 14:17:43;;;;;;;6.10;3.70;;;15.70;49.50;;;;;;5076843;28;20183;-78
2021/03/01 14:20:09;;;;;;;11.47;3.93;;;14.60;52.30;;;;;;5077450;28;20295;-77
2021/03/01 14:22:35;;;;;;;25.00;5.77;;;13.80;53.20;;;;;;5075909;28;20745;-78
2021/03/01 14:25:01;;;;;;;35.33;7.50;;;13.20;54.70;;;;;;5074842;28;20196;-78
2021/03/01 14:27:27;;;;;;;12.43;6.83;;;12.70;55.60;;;;;;5075460;28;20221;-79
2021/03/01 14:29:53;;;;;;;55.30;7.20;;;12.40;56.90;;;;;;5077291;28;20219;-78
2021/03/01 14:32:19;;;;;;;61.73;7.53;;;12.30;57.60;;;;;;5077176;28;20260;-78
2021/03/01 14:34:45;;;;;;;32.23;6.27;;;12.20;58.00;;;;;;5076326;28;20203;-78
2021/03/01 14:37:12;;;;;;;5.50;3.50;;;12.20;58.40;;;;;;5076427;28;20177;-78
2021/03/01 14:39:38;;;;;;;19.87;4.87;;;12.00;58.10;;;;;;5075378;28;20177;-78
2021/03/01 14:42:04;;;;;;;22.37;4.43;;;11.90;58.70;;;;;;5074899;28;20165;-78
2021/03/01 14:44:29;;;;;;;11.30;3.73;;;11.90;59.70;;;;;;5077451;28;20180;-78
2021/03/01 14:46:55;;;;;;;11.33;4.47;;;11.90;59.20;;;;;;5079501;28;20195;-78
2021/03/01 14:49:21;;;;;;;8.10;4.47;;;11.80;59.10;;;;;;5074445;28;20256;-78
2021/03/01 14:51:48;;;;;;;4.93;3.40;;;11.80;59.50;;;;;;5075418;28;20192;-78
2021/03/01 14:54:13;;;;;;;4.63;3.23;;;11.80;60.30;;;;;;5075300;28;20202;-77
2021/03/01 14:56:39;;;;;;;5.13;3.37;;;11.90;60.10;;;;;;5076104;28;20177;-78
2021/03/01 14:59:05;;;;;;;4.07;3.03;;;11.90;59.90;;;;;;5075079;28;20177;-78
2021/03/01 15:01:31;;;;;;;5.67;3.40;;;11.80;59.10;;;;;;5074910;28;20203;-78
2021/03/01 15:03:56;;;;;;;5.00;3.57;;;11.70;59.80;;;;;;5075219;28;20270;-78
2021/03/01 15:06:22;;;;;;;7.43;3.57;;;11.60;60.70;;;;;;5073646;28;20219;-78
2021/03/01 15:08:47;;;;;;;6.37;3.03;;;11.60;61.10;;;;;;5073172;28;20173;-78
2021/03/01 15:11:13;;;;;;;5.60;3.70;;;11.50;60.80;;;;;;5074600;28;20218;-78
2021/03/01 15:13:39;;;;;;;5.13;3.73;;;11.50;60.90;;;;;;5073923;28;20276;-78
2021/03/01 15:16:07;;;;;;;5.90;3.90;;;11.40;61.50;;;;;;5073964;28;20223;-77
2021/03/01 15:18:34;;;;;;;5.40;3.40;;;11.30;62.60;;;;;;5072927;28;20638;-78
2021/03/01 15:21:00;;;;;;;6.70;3.50;;;11.30;62.80;;;;;;5075119;28;20169;-78
2021/03/01 15:23:28;;;;;;;6.40;4.10;;;11.30;61.50;;;;;;5075649;28;20191;-78
2021/03/01 15:25:54;;;;;;;10.37;4.07;;;11.30;62.50;;;;;;5074258;28;20165;-77
2021/03/01 15:28:25;;;;;;;7.23;4.10;;;11.20;62.70;;;;;;5072474;28;20173;-78
2021/03/01 15:30:51;;;;;;;7.13;4.70;;;11.20;63.90;;;;;;5074488;28;20658;-78